sensor_id;sensor_type;location;lat;lon;timestamp;P1;P2;P0
62778;PMS7003;48821;48.796;2.396;2022-10-31T06:50:44;12.75;12.75;10.25
62778;PMS7003;48821;48.796;2.396;2022-10-31T06:51:55;18.75;16.50;12.25
62778;PMS7003;48821;48.796;2.396;2022-10-31T06:53:05;16.50;14.50;10.50
62778;PMS7003;48821;48.796;2.396;2022-10-31T06:54:15;18.75;15.75;11.50
62778;PMS7003;48821;48.796;2.396;2022-10-31T06:55:26;17.75;16.25;12.25
62778;PMS7003;48821;48.796;2.396;2022-10-31T06:56:37;18.75;18.25;13.25
62778;PMS7003;48821;48.796;2.396;2022-10-31T06:57:54;16.00;16.00;11.75
62778;PMS7003;48821;48.796;2.396;2022-10-31T06:59:06;18.50;15.50;12.25
62778;PMS7003;48821;48.796;2.396;2022-10-31T07:00:16;17.00;15.00;10.25
62778;PMS7003;48821;48.796;2.396;2022-10-31T07:01:27;17.75;16.50;12.00
62778;PMS7003;48821;48.796;2.396;2022-10-31T07:02:37;18.25;16.75;12.25
62778;PMS7003;48821;48.796;2.396;2022-10-31T07:03:47;15.50;14.00;11.50
62778;PMS7003;48821;48.796;2.396;2022-10-31T07:04:58;20.25;17.50;12.25
62778;PMS7003;48821;48.796;2.396;2022-10-31T07:06:08;15.00;11.50;10.50
62778;PMS7003;48821;48.796;2.396;2022-10-31T07:07:18;17.75;15.25;11.50
62778;PMS7003;48821;48.796;2.396;2022-10-31T07:08:31;16.75;14.00;10.25
62778;PMS7003;48821;48.796;2.396;2022-10-31T07:09:41;19.25;16.75;12.25
62778;PMS7003;48821;48.796;2.396;2022-10-31T07:10:52;15.25;14.25;11.25
62778;PMS7003;48821;48.796;2.396;2022-10-31T07:12:05;16.50;13.25;10.25
62778;PMS7003;48821;48.796;2.396;2022-10-31T07:13:15;17.50;15.75;11.25
62778;PMS7003;48821;48.796;2.396;2022-10-31T07:14:25;16.50;12.50;9.75
62778;PMS7003;48821;48.796;2.396;2022-10-31T07:15:37;14.25;12.25;9.75
62778;PMS7003;48821;48.796;2.396;2022-10-31T07:16:50;19.00;12.75;10.25
62778;PMS7003;48821;48.796;2.396;2022-10-31T07:18:05;15.75;15.00;12.00
62778;PMS7003;48821;48.796;2.396;2022-10-31T07:19:16;20.75;15.75;13.00
62778;PMS7003;48821;48.796;2.396;2022-10-31T07:20:27;15.75;14.00;10.75
62778;PMS7003;48821;48.796;2.396;2022-10-31T07:21:38;17.75;16.00;12.00
62778;PMS7003;48821;48.796;2.396;2022-10-31T07:22:48;16.50;15.00;11.00
62778;PMS7003;48821;48.796;2.396;2022-10-31T07:23:58;18.50;17.00;11.50
62778;PMS7003;48821;48.796;2.396;2022-10-31T07:25:08;12.25;10.50;9.50
62778;PMS7003;48821;48.796;2.396;2022-10-31T07:26:19;16.50;15.75;12.25
62778;PMS7003;48821;48.796;2.396;2022-10-31T07:27:37;22.75;16.50;11.75
62778;PMS7003;48821;48.796;2.396;2022-10-31T07:28:50;16.00;16.00;11.25
62778;PMS7003;48821;48.796;2.396;2022-10-31T07:30:01;16.00;15.50;10.25
62778;PMS7003;48821;48.796;2.396;2022-10-31T07:31:11;16.75;15.75;11.25
62778;PMS7003;48821;48.796;2.396;2022-10-31T07:32:21;14.75;14.25;10.25
62778;PMS7003;48821;48.796;2.396;2022-10-31T07:33:32;20.75;18.25;14.75
62778;PMS7003;48821;48.796;2.396;2022-10-31T07:34:42;15.75;14.25;11.25
62778;PMS7003;48821;48.796;2.396;2022-10-31T07:35:53;16.75;16.00;12.00
62778;PMS7003;48821;48.796;2.396;2022-10-31T07:37:03;19.50;18.25;12.50
62778;PMS7003;48821;48.796;2.396;2022-10-31T07:38:14;18.75;15.50;10.75
62778;PMS7003;48821;48.796;2.396;2022-10-31T07:39:25;16.00;16.00;12.00
62778;PMS7003;48821;48.796;2.396;2022-10-31T07:40:35;16.50;14.00;10.50
62778;PMS7003;48821;48.796;2.396;2022-10-31T07:41:46;16.75;15.00;10.50
62778;PMS7003;48821;48.796;2.396;2022-10-31T07:42:57;17.50;15.75;11.25
62778;PMS7003;48821;48.796;2.396;2022-10-31T07:44:07;17.00;15.00;11.25
62778;PMS7003;48821;48.796;2.396;2022-10-31T07:45:19;21.00;16.50;11.25
62778;PMS7003;48821;48.796;2.396;2022-10-31T07:46:30;17.25;14.50;10.00
62778;PMS7003;48821;48.796;2.396;2022-10-31T07:48:54;16.00;12.25;9.75
62778;PMS7003;48821;48.796;2.396;2022-10-31T07:50:05;16.00;15.00;11.25
62778;PMS7003;48821;48.796;2.396;2022-10-31T07:51:16;16.00;12.00;9.75
62778;PMS7003;48821;48.796;2.396;2022-10-31T07:52:26;22.00;15.25;11.25
62778;PMS7003;48821;48.796;2.396;2022-10-31T07:53:36;15.75;14.75;10.25
62778;PMS7003;48821;48.796;2.396;2022-10-31T07:54:47;13.00;12.25;10.25
62778;PMS7003;48821;48.796;2.396;2022-10-31T07:55:57;15.00;11.50;10.25
62778;PMS7003;48821;48.796;2.396;2022-10-31T07:57:07;17.50;16.25;12.25
62778;PMS7003;48821;48.796;2.396;2022-10-31T07:58:18;18.50;14.50;11.00
62778;PMS7003;48821;48.796;2.396;2022-10-31T07:59:29;17.25;15.00;11.00
62778;PMS7003;48821;48.796;2.396;2022-10-31T08:00:40;19.75;15.75;10.75
62778;PMS7003;48821;48.796;2.396;2022-10-31T08:01:52;14.50;11.25;10.25
62778;PMS7003;48821;48.796;2.396;2022-10-31T08:03:04;19.00;18.25;12.50
62778;PMS7003;48821;48.796;2.396;2022-10-31T08:04:16;19.75;15.25;11.00
62778;PMS7003;48821;48.796;2.396;2022-10-31T08:05:26;16.00;15.50;10.50
62778;PMS7003;48821;48.796;2.396;2022-10-31T08:06:37;16.50;13.75;10.00
62778;PMS7003;48821;48.796;2.396;2022-10-31T08:07:47;18.75;16.00;10.50
62778;PMS7003;48821;48.796;2.396;2022-10-31T08:08:57;14.00;14.00;12.25
62778;PMS7003;48821;48.796;2.396;2022-10-31T08:10:08;18.00;15.00;10.50
62778;PMS7003;48821;48.796;2.396;2022-10-31T08:11:18;15.75;14.50;10.25
62778;PMS7003;48821;48.796;2.396;2022-10-31T08:12:28;17.50;16.25;11.00
62778;PMS7003;48821;48.796;2.396;2022-10-31T08:13:39;15.75;12.75;9.00
62778;PMS7003;48821;48.796;2.396;2022-10-31T08:14:50;17.00;15.75;11.25
62778;PMS7003;48821;48.796;2.396;2022-10-31T08:16:00;20.00;15.25;11.00
62778;PMS7003;48821;48.796;2.396;2022-10-31T08:17:14;14.00;12.50;9.75
62778;PMS7003;48821;48.796;2.396;2022-10-31T08:18:24;14.75;14.75;11.00
62778;PMS7003;48821;48.796;2.396;2022-10-31T08:19:34;17.75;13.25;9.50
62778;PMS7003;48821;48.796;2.396;2022-10-31T08:20:45;19.50;15.00;10.50
62778;PMS7003;48821;48.796;2.396;2022-10-31T08:21:55;18.25;16.25;11.25
62778;PMS7003;48821;48.796;2.396;2022-10-31T08:23:06;20.75;14.25;11.75
62778;PMS7003;48821;48.796;2.396;2022-10-31T08:24:16;22.25;18.50;12.00
62778;PMS7003;48821;48.796;2.396;2022-10-31T08:25:27;16.00;15.00;11.25
62778;PMS7003;48821;48.796;2.396;2022-10-31T08:26:39;20.25;16.25;12.00
62778;PMS7003;48821;48.796;2.396;2022-10-31T08:27:50;21.25;17.25;13.00
62778;PMS7003;48821;48.796;2.396;2022-10-31T08:29:01;20.25;20.25;15.50
62778;PMS7003;48821;48.796;2.396;2022-10-31T08:30:12;19.75;17.00;11.50
62778;PMS7003;48821;48.796;2.396;2022-10-31T08:31:22;14.75;12.75;9.50
62778;PMS7003;48821;48.796;2.396;2022-10-31T08:32:33;22.75;19.50;12.25
62778;PMS7003;48821;48.796;2.396;2022-10-31T08:33:44;19.50;16.75;13.50
62778;PMS7003;48821;48.796;2.396;2022-10-31T08:34:54;18.75;18.75;14.25
62778;PMS7003;48821;48.796;2.396;2022-10-31T08:36:04;23.00;19.75;13.50
62778;PMS7003;48821;48.796;2.396;2022-10-31T08:37:15;23.50;20.25;12.50
62778;PMS7003;48821;48.796;2.396;2022-10-31T08:38:29;24.50;20.50;14.25
62778;PMS7003;48821;48.796;2.396;2022-10-31T08:39:40;26.50;21.75;12.50
62778;PMS7003;48821;48.796;2.396;2022-10-31T08:40:50;25.75;23.75;16.00
62778;PMS7003;48821;48.796;2.396;2022-10-31T08:42:00;24.75;21.00;14.00
62778;PMS7003;48821;48.796;2.396;2022-10-31T08:43:11;25.50;22.25;17.25
62778;PMS7003;48821;48.796;2.396;2022-10-31T08:44:23;26.75;21.25;16.50
62778;PMS7003;48821;48.796;2.396;2022-10-31T08:45:34;31.75;20.75;14.00
62778;PMS7003;48821;48.796;2.396;2022-10-31T08:46:44;25.75;24.00;17.00
62778;PMS7003;48821;48.796;2.396;2022-10-31T08:47:58;24.00;21.50;16.00
62778;PMS7003;48821;48.796;2.396;2022-10-31T08:49:10;28.25;24.00;17.50
62778;PMS7003;48821;48.796;2.396;2022-10-31T08:50:20;30.50;25.50;16.75
62778;PMS7003;48821;48.796;2.396;2022-10-31T08:51:30;26.25;20.00;13.50
62778;PMS7003;48821;48.796;2.396;2022-10-31T08:52:41;27.25;21.25;13.50
62778;PMS7003;48821;48.796;2.396;2022-10-31T08:53:51;20.50;20.50;15.50
62778;PMS7003;48821;48.796;2.396;2022-10-31T08:55:01;22.75;17.50;13.25
62778;PMS7003;48821;48.796;2.396;2022-10-31T08:56:12;21.50;20.00;14.25
62778;PMS7003;48821;48.796;2.396;2022-10-31T08:57:22;27.25;22.25;15.00
62778;PMS7003;48821;48.796;2.396;2022-10-31T08:58:32;24.00;20.75;12.50
62778;PMS7003;48821;48.796;2.396;2022-10-31T08:59:42;25.00;22.00;16.25
62778;PMS7003;48821;48.796;2.396;2022-10-31T09:00:53;27.25;22.25;15.50
62778;PMS7003;48821;48.796;2.396;2022-10-31T09:02:06;27.25;23.75;18.00
62778;PMS7003;48821;48.796;2.396;2022-10-31T09:03:23;25.75;24.25;16.50
62778;PMS7003;48821;48.796;2.396;2022-10-31T09:04:35;25.00;23.50;15.25
62778;PMS7003;48821;48.796;2.396;2022-10-31T09:05:45;22.50;21.50;14.75
62778;PMS7003;48821;48.796;2.396;2022-10-31T09:06:56;27.00;20.25;17.00
62778;PMS7003;48821;48.796;2.396;2022-10-31T09:08:06;20.50;20.50;13.75
62778;PMS7003;48821;48.796;2.396;2022-10-31T09:09:17;28.75;24.25;17.25
62778;PMS7003;48821;48.796;2.396;2022-10-31T09:10:28;25.25;23.75;17.50
62778;PMS7003;48821;48.796;2.396;2022-10-31T09:11:39;23.25;20.50;13.50
62778;PMS7003;48821;48.796;2.396;2022-10-31T09:13:03;23.00;21.25;15.00
62778;PMS7003;48821;48.796;2.396;2022-10-31T09:14:16;16.00;16.00;12.25
62778;PMS7003;48821;48.796;2.396;2022-10-31T09:15:27;30.50;25.75;17.25
62778;PMS7003;48821;48.796;2.396;2022-10-31T09:16:38;25.75;21.50;14.50
62778;PMS7003;48821;48.796;2.396;2022-10-31T09:17:48;25.75;21.50;14.00
62778;PMS7003;48821;48.796;2.396;2022-10-31T09:18:59;24.25;20.75;13.75
62778;PMS7003;48821;48.796;2.396;2022-10-31T09:20:09;30.00;23.00;15.25
62778;PMS7003;48821;48.796;2.396;2022-10-31T09:21:20;22.50;18.25;13.00
62778;PMS7003;48821;48.796;2.396;2022-10-31T09:22:30;28.75;24.00;16.25
62778;PMS7003;48821;48.796;2.396;2022-10-31T09:23:40;25.25;22.75;14.50
62778;PMS7003;48821;48.796;2.396;2022-10-31T09:24:50;24.00;21.25;15.25
62778;PMS7003;48821;48.796;2.396;2022-10-31T09:26:01;14.50;14.50;10.75
62778;PMS7003;48821;48.796;2.396;2022-10-31T09:27:12;25.00;24.00;15.00
62778;PMS7003;48821;48.796;2.396;2022-10-31T09:28:22;25.25;20.25;14.25
62778;PMS7003;48821;48.796;2.396;2022-10-31T09:29:34;14.75;14.25;10.25
62778;PMS7003;48821;48.796;2.396;2022-10-31T09:30:46;16.75;16.00;11.50
62778;PMS7003;48821;48.796;2.396;2022-10-31T09:31:57;27.50;22.00;15.00
62778;PMS7003;48821;48.796;2.396;2022-10-31T09:33:11;16.50;14.25;10.25
62778;PMS7003;48821;48.796;2.396;2022-10-31T09:34:22;24.50;19.75;15.50
62778;PMS7003;48821;48.796;2.396;2022-10-31T09:35:33;21.50;17.75;12.75
62778;PMS7003;48821;48.796;2.396;2022-10-31T09:36:43;19.75;18.25;12.25
62778;PMS7003;48821;48.796;2.396;2022-10-31T09:37:59;19.25;17.00;12.75
62778;PMS7003;48821;48.796;2.396;2022-10-31T09:39:14;24.25;21.25;14.25
62778;PMS7003;48821;48.796;2.396;2022-10-31T09:40:27;21.75;17.00;12.25
62778;PMS7003;48821;48.796;2.396;2022-10-31T09:46:15;21.00;18.75;12.50
62778;PMS7003;48821;48.796;2.396;2022-10-31T09:50:58;27.75;22.50;14.75
62778;PMS7003;48821;48.796;2.396;2022-10-31T09:52:19;20.25;19.00;12.75
62778;PMS7003;48821;48.796;2.396;2022-10-31T09:53:53;23.00;19.25;12.25
62778;PMS7003;48821;48.796;2.396;2022-10-31T09:55:16;28.25;23.50;18.50
62778;PMS7003;48821;48.796;2.396;2022-10-31T09:56:31;21.75;14.50;12.25
62778;PMS7003;48821;48.796;2.396;2022-10-31T09:57:42;22.25;20.00;14.00
62778;PMS7003;48821;48.796;2.396;2022-10-31T09:58:58;23.50;20.75;14.75
62778;PMS7003;48821;48.796;2.396;2022-10-31T10:00:17;29.25;21.75;15.50
62778;PMS7003;48821;48.796;2.396;2022-10-31T10:05:50;19.50;14.25;11.50
62778;PMS7003;48821;48.796;2.396;2022-10-31T10:09:01;19.50;17.25;12.50
62778;PMS7003;48821;48.796;2.396;2022-10-31T10:14:25;18.75;15.50;11.75
62778;PMS7003;48821;48.796;2.396;2022-10-31T10:16:00;17.50;15.75;11.25
62778;PMS7003;48821;48.796;2.396;2022-10-31T10:17:25;20.25;20.00;13.00
62778;PMS7003;48821;48.796;2.396;2022-10-31T10:18:42;22.50;18.50;11.50
62778;PMS7003;48821;48.796;2.396;2022-10-31T10:26:21;21.50;18.50;12.25
62778;PMS7003;48821;48.796;2.396;2022-10-31T10:31:01;14.00;14.00;10.50
62778;PMS7003;48821;48.796;2.396;2022-10-31T10:32:26;17.75;15.50;12.25
62778;PMS7003;48821;48.796;2.396;2022-10-31T10:34:24;21.00;17.00;12.00
62778;PMS7003;48821;48.796;2.396;2022-10-31T10:35:45;16.50;14.50;10.50
62778;PMS7003;48821;48.796;2.396;2022-10-31T10:37:03;18.75;15.75;12.00
62778;PMS7003;48821;48.796;2.396;2022-10-31T10:38:29;15.75;13.25;10.25
62778;PMS7003;48821;48.796;2.396;2022-10-31T10:39:45;18.50;15.00;11.00
62778;PMS7003;48821;48.796;2.396;2022-10-31T10:41:00;16.25;14.50;10.50
62778;PMS7003;48821;48.796;2.396;2022-10-31T10:42:15;19.50;13.75;10.75
62778;PMS7003;48821;48.796;2.396;2022-10-31T10:43:55;18.75;16.00;11.75
62778;PMS7003;48821;48.796;2.396;2022-10-31T10:45:18;17.00;12.75;9.75
62778;PMS7003;48821;48.796;2.396;2022-10-31T10:46:51;16.00;13.75;11.00
62778;PMS7003;48821;48.796;2.396;2022-10-31T10:48:39;17.50;17.00;12.00
62778;PMS7003;48821;48.796;2.396;2022-10-31T10:49:53;17.50;15.50;10.75
62778;PMS7003;48821;48.796;2.396;2022-10-31T10:51:03;15.00;15.00;10.25
62778;PMS7003;48821;48.796;2.396;2022-10-31T10:58:31;17.00;14.00;10.25
62778;PMS7003;48821;48.796;2.396;2022-10-31T10:59:41;15.25;10.75;5.25
62778;PMS7003;48821;48.796;2.396;2022-10-31T11:00:52;16.50;14.50;10.50
62778;PMS7003;48821;48.796;2.396;2022-10-31T11:02:15;13.25;12.50;9.00
62778;PMS7003;48821;48.796;2.396;2022-10-31T11:03:28;14.50;13.25;10.25
62778;PMS7003;48821;48.796;2.396;2022-10-31T11:04:40;15.00;13.50;10.25
62778;PMS7003;48821;48.796;2.396;2022-10-31T11:05:53;16.00;13.25;10.50
62778;PMS7003;48821;48.796;2.396;2022-10-31T11:07:09;12.25;11.25;8.25
62778;PMS7003;48821;48.796;2.396;2022-10-31T11:08:31;20.00;16.50;11.25
62778;PMS7003;48821;48.796;2.396;2022-10-31T11:09:45;15.00;11.50;8.25
62778;PMS7003;48821;48.796;2.396;2022-10-31T11:13:40;12.75;12.50;9.50
62778;PMS7003;48821;48.796;2.396;2022-10-31T11:14:54;15.50;13.50;10.00
62778;PMS7003;48821;48.796;2.396;2022-10-31T11:16:11;14.25;12.50;9.75
62778;PMS7003;48821;48.796;2.396;2022-10-31T11:17:37;15.50;14.75;10.25
62778;PMS7003;48821;48.796;2.396;2022-10-31T11:18:49;15.33;13.00;9.33
62778;PMS7003;48821;48.796;2.396;2022-10-31T11:21:27;16.25;15.50;11.25
62778;PMS7003;48821;48.796;2.396;2022-10-31T11:22:42;14.25;14.00;10.00
62778;PMS7003;48821;48.796;2.396;2022-10-31T11:24:03;10.75;10.00;7.75
62778;PMS7003;48821;48.796;2.396;2022-10-31T11:25:24;16.50;13.25;9.75
62778;PMS7003;48821;48.796;2.396;2022-10-31T11:26:36;16.50;12.00;8.75
62778;PMS7003;48821;48.796;2.396;2022-10-31T11:28:04;17.50;15.00;10.50
62778;PMS7003;48821;48.796;2.396;2022-10-31T11:29:22;14.50;12.75;10.25
62778;PMS7003;48821;48.796;2.396;2022-10-31T11:32:19;12.50;11.25;7.50
62778;PMS7003;48821;48.796;2.396;2022-10-31T11:33:39;14.25;12.25;9.00
62778;PMS7003;48821;48.796;2.396;2022-10-31T11:34:57;13.75;13.75;9.50
62778;PMS7003;48821;48.796;2.396;2022-10-31T11:36:15;17.50;14.50;11.00
62778;PMS7003;48821;48.796;2.396;2022-10-31T11:37:27;15.00;15.00;10.00
62778;PMS7003;48821;48.796;2.396;2022-10-31T11:38:41;14.50;12.50;9.75
62778;PMS7003;48821;48.796;2.396;2022-10-31T11:39:53;16.25;14.75;9.25
62778;PMS7003;48821;48.796;2.396;2022-10-31T11:42:22;15.25;12.50;9.00
62778;PMS7003;48821;48.796;2.396;2022-10-31T11:43:34;14.50;12.75;10.00
62778;PMS7003;48821;48.796;2.396;2022-10-31T11:44:45;16.00;14.50;7.50
62778;PMS7003;48821;48.796;2.396;2022-10-31T11:45:55;15.50;12.50;9.00
62778;PMS7003;48821;48.796;2.396;2022-10-31T11:47:09;15.25;10.50;5.25
62778;PMS7003;48821;48.796;2.396;2022-10-31T11:48:24;12.25;11.50;8.50
62778;PMS7003;48821;48.796;2.396;2022-10-31T11:50:51;16.50;10.50;9.25
62778;PMS7003;48821;48.796;2.396;2022-10-31T11:52:08;16.50;14.75;10.25
62778;PMS7003;48821;48.796;2.396;2022-10-31T11:53:32;15.50;12.25;10.25
62778;PMS7003;48821;48.796;2.396;2022-10-31T11:54:45;18.75;11.25;8.50
62778;PMS7003;48821;48.796;2.396;2022-10-31T11:57:43;13.25;11.25;8.50
62778;PMS7003;48821;48.796;2.396;2022-10-31T11:59:01;10.75;10.00;8.00
62778;PMS7003;48821;48.796;2.396;2022-10-31T12:00:21;15.25;11.50;8.75
62778;PMS7003;48821;48.796;2.396;2022-10-31T12:01:46;14.50;11.25;9.00
62778;PMS7003;48821;48.796;2.396;2022-10-31T12:03:10;15.00;11.25;8.25
62778;PMS7003;48821;48.796;2.396;2022-10-31T12:04:40;13.50;13.00;9.75
62778;PMS7003;48821;48.796;2.396;2022-10-31T12:07:30;12.25;12.25;9.00
62778;PMS7003;48821;48.796;2.396;2022-10-31T12:08:41;16.25;13.25;9.00
62778;PMS7003;48821;48.796;2.396;2022-10-31T12:09:52;10.75;9.00;7.00
62778;PMS7003;48821;48.796;2.396;2022-10-31T12:15:31;19.50;12.25;10.00
62778;PMS7003;48821;48.796;2.396;2022-10-31T12:18:11;14.75;12.25;8.50
62778;PMS7003;48821;48.796;2.396;2022-10-31T12:23:03;11.75;11.50;8.00
62778;PMS7003;48821;48.796;2.396;2022-10-31T12:25:39;14.50;11.50;8.75
62778;PMS7003;48821;48.796;2.396;2022-10-31T12:31:55;13.25;11.25;8.25
62778;PMS7003;48821;48.796;2.396;2022-10-31T12:36:29;18.25;12.75;9.25
62778;PMS7003;48821;48.796;2.396;2022-10-31T12:39:33;14.00;11.25;8.00
62778;PMS7003;48821;48.796;2.396;2022-10-31T12:44:02;15.75;13.25;10.50
62778;PMS7003;48821;48.796;2.396;2022-10-31T12:49:41;15.25;11.75;9.00
62778;PMS7003;48821;48.796;2.396;2022-10-31T12:52:40;11.50;11.00;8.25
62778;PMS7003;48821;48.796;2.396;2022-10-31T12:55:29;13.50;11.00;8.00
62778;PMS7003;48821;48.796;2.396;2022-10-31T12:57:04;12.75;10.75;7.50
62778;PMS7003;48821;48.796;2.396;2022-10-31T12:58:26;14.50;11.50;8.00
62778;PMS7003;48821;48.796;2.396;2022-10-31T12:59:47;16.00;12.00;8.50
62778;PMS7003;48821;48.796;2.396;2022-10-31T13:01:07;15.25;11.00;8.00
62778;PMS7003;48821;48.796;2.396;2022-10-31T13:02:24;13.50;12.50;8.00
62778;PMS7003;48821;48.796;2.396;2022-10-31T13:06:52;14.25;11.50;7.50
62778;PMS7003;48821;48.796;2.396;2022-10-31T13:08:11;9.75;9.75;6.50
62778;PMS7003;48821;48.796;2.396;2022-10-31T13:09:33;13.75;11.75;9.25
62778;PMS7003;48821;48.796;2.396;2022-10-31T13:12:29;11.00;9.00;5.75
62778;PMS7003;48821;48.796;2.396;2022-10-31T13:13:49;15.25;11.50;8.00
62778;PMS7003;48821;48.796;2.396;2022-10-31T13:15:27;1.00;0.00;0.00
62778;PMS7003;48821;48.796;2.396;2022-10-31T13:16:40;12.75;11.75;8.25
62778;PMS7003;48821;48.796;2.396;2022-10-31T13:17:57;16.00;12.25;9.00
62778;PMS7003;48821;48.796;2.396;2022-10-31T13:20:37;15.00;13.25;9.00
62778;PMS7003;48821;48.796;2.396;2022-10-31T13:23:11;12.50;10.50;7.50
62778;PMS7003;48821;48.796;2.396;2022-10-31T13:24:36;11.75;10.50;8.50
62778;PMS7003;48821;48.796;2.396;2022-10-31T13:25:49;12.25;11.75;8.00
62778;PMS7003;48821;48.796;2.396;2022-10-31T13:27:09;15.50;14.00;8.25
62778;PMS7003;48821;48.796;2.396;2022-10-31T13:29:48;10.25;9.50;7.00
62778;PMS7003;48821;48.796;2.396;2022-10-31T13:31:22;20.25;12.50;9.50
62778;PMS7003;48821;48.796;2.396;2022-10-31T13:32:43;9.75;9.00;7.50
62778;PMS7003;48821;48.796;2.396;2022-10-31T13:35:42;14.00;12.25;10.00
62778;PMS7003;48821;48.796;2.396;2022-10-31T13:37:03;14.00;12.75;10.50
62778;PMS7003;48821;48.796;2.396;2022-10-31T13:39:38;14.25;11.25;8.00
62778;PMS7003;48821;48.796;2.396;2022-10-31T13:41:02;13.25;12.00;9.00
62778;PMS7003;48821;48.796;2.396;2022-10-31T13:45:22;12.00;12.00;10.25
62778;PMS7003;48821;48.796;2.396;2022-10-31T13:46:38;11.50;11.50;8.75
62778;PMS7003;48821;48.796;2.396;2022-10-31T13:50:38;14.00;13.25;10.00
62778;PMS7003;48821;48.796;2.396;2022-10-31T13:51:49;12.50;11.50;8.00
62778;PMS7003;48821;48.796;2.396;2022-10-31T13:53:08;14.75;12.50;8.25
62778;PMS7003;48821;48.796;2.396;2022-10-31T13:55:50;12.50;12.25;9.00
62778;PMS7003;48821;48.796;2.396;2022-10-31T13:57:30;16.75;12.25;9.50
62778;PMS7003;48821;48.796;2.396;2022-10-31T14:01:29;12.25;12.25;10.75
62778;PMS7003;48821;48.796;2.396;2022-10-31T14:02:45;15.25;12.25;9.00
62778;PMS7003;48821;48.796;2.396;2022-10-31T14:04:14;10.25;9.25;6.50
62778;PMS7003;48821;48.796;2.396;2022-10-31T14:05:29;12.75;9.00;7.50
62778;PMS7003;48821;48.796;2.396;2022-10-31T14:08:15;14.50;11.00;8.00
62778;PMS7003;48821;48.796;2.396;2022-10-31T14:09:31;14.75;13.00;10.50
62778;PMS7003;48821;48.796;2.396;2022-10-31T14:10:46;13.75;13.25;9.00
62778;PMS7003;48821;48.796;2.396;2022-10-31T14:12:01;13.50;12.25;8.75
62778;PMS7003;48821;48.796;2.396;2022-10-31T14:13:15;12.00;11.50;8.00
62778;PMS7003;48821;48.796;2.396;2022-10-31T14:14:33;13.25;12.75;8.75
62778;PMS7003;48821;48.796;2.396;2022-10-31T14:15:53;16.25;14.50;8.50
62778;PMS7003;48821;48.796;2.396;2022-10-31T14:17:17;14.75;11.00;8.00
62778;PMS7003;48821;48.796;2.396;2022-10-31T14:18:31;14.50;11.00;7.00
62778;PMS7003;48821;48.796;2.396;2022-10-31T14:19:42;12.75;10.25;8.25
62778;PMS7003;48821;48.796;2.396;2022-10-31T14:20:52;16.75;12.25;9.00
62778;PMS7003;48821;48.796;2.396;2022-10-31T14:22:03;14.50;12.25;9.25
62778;PMS7003;48821;48.796;2.396;2022-10-31T14:24:54;10.75;9.50;8.00
62778;PMS7003;48821;48.796;2.396;2022-10-31T14:26:29;14.00;13.00;9.25
62778;PMS7003;48821;48.796;2.396;2022-10-31T14:27:45;16.50;13.00;11.25
62778;PMS7003;48821;48.796;2.396;2022-10-31T14:28:57;13.50;12.25;8.00
62778;PMS7003;48821;48.796;2.396;2022-10-31T14:30:31;16.75;13.25;8.50
62778;PMS7003;48821;48.796;2.396;2022-10-31T14:31:45;14.75;12.50;9.00
62778;PMS7003;48821;48.796;2.396;2022-10-31T14:33:13;14.00;12.25;7.75
62778;PMS7003;48821;48.796;2.396;2022-10-31T14:34:30;14.25;11.00;8.25
62778;PMS7003;48821;48.796;2.396;2022-10-31T14:35:51;16.75;13.25;11.75
62778;PMS7003;48821;48.796;2.396;2022-10-31T14:37:19;12.00;10.25;7.75
62778;PMS7003;48821;48.796;2.396;2022-10-31T14:42:07;13.75;10.75;8.00
62778;PMS7003;48821;48.796;2.396;2022-10-31T14:43:39;15.00;12.25;8.75
62778;PMS7003;48821;48.796;2.396;2022-10-31T14:51:18;11.50;11.25;8.50
62778;PMS7003;48821;48.796;2.396;2022-10-31T14:52:31;15.00;10.50;9.00
62778;PMS7003;48821;48.796;2.396;2022-10-31T14:53:51;12.00;11.75;10.00
62778;PMS7003;48821;48.796;2.396;2022-10-31T14:55:05;13.25;13.25;9.50
62778;PMS7003;48821;48.796;2.396;2022-10-31T14:56:30;15.25;13.50;9.50
62778;PMS7003;48821;48.796;2.396;2022-10-31T14:58:00;15.00;10.00;6.50
62778;PMS7003;48821;48.796;2.396;2022-10-31T14:59:15;17.25;12.50;8.50
62778;PMS7003;48821;48.796;2.396;2022-10-31T15:00:30;13.50;11.75;9.00
62778;PMS7003;48821;48.796;2.396;2022-10-31T15:01:48;13.00;12.25;8.75
62778;PMS7003;48821;48.796;2.396;2022-10-31T15:03:10;14.25;11.75;9.50
62778;PMS7003;48821;48.796;2.396;2022-10-31T15:04:23;14.00;12.25;10.50
62778;PMS7003;48821;48.796;2.396;2022-10-31T15:05:49;15.25;10.25;6.50
62778;PMS7003;48821;48.796;2.396;2022-10-31T15:07:08;13.50;13.00;10.25
62778;PMS7003;48821;48.796;2.396;2022-10-31T15:10:00;16.75;14.00;10.50
62778;PMS7003;48821;48.796;2.396;2022-10-31T15:11:13;12.50;12.00;8.00
62778;PMS7003;48821;48.796;2.396;2022-10-31T15:15:27;12.75;12.75;9.00
62778;PMS7003;48821;48.796;2.396;2022-10-31T15:16:38;12.25;11.75;9.00
62778;PMS7003;48821;48.796;2.396;2022-10-31T15:18:03;15.00;12.00;9.25
62778;PMS7003;48821;48.796;2.396;2022-10-31T15:19:16;15.50;11.75;9.50
62778;PMS7003;48821;48.796;2.396;2022-10-31T15:20:36;15.75;13.25;10.00
62778;PMS7003;48821;48.796;2.396;2022-10-31T15:21:52;15.25;13.00;10.50
62778;PMS7003;48821;48.796;2.396;2022-10-31T15:23:04;17.50;13.75;11.75
62778;PMS7003;48821;48.796;2.396;2022-10-31T15:24:15;13.00;12.00;10.25
62778;PMS7003;48821;48.796;2.396;2022-10-31T15:25:30;13.25;11.50;9.00
62778;PMS7003;48821;48.796;2.396;2022-10-31T15:26:45;15.50;14.50;10.50
62778;PMS7003;48821;48.796;2.396;2022-10-31T15:27:57;13.50;12.50;9.50
62778;PMS7003;48821;48.796;2.396;2022-10-31T15:29:16;14.00;14.00;9.25
62778;PMS7003;48821;48.796;2.396;2022-10-31T15:30:32;16.00;13.25;9.00
62778;PMS7003;48821;48.796;2.396;2022-10-31T15:31:49;16.50;13.50;9.25
62778;PMS7003;48821;48.796;2.396;2022-10-31T15:33:15;11.75;11.75;9.25
62778;PMS7003;48821;48.796;2.396;2022-10-31T15:34:33;14.50;13.25;9.50
62778;PMS7003;48821;48.796;2.396;2022-10-31T15:35:59;14.75;13.00;9.00
62778;PMS7003;48821;48.796;2.396;2022-10-31T15:37:10;15.25;13.75;11.00
62778;PMS7003;48821;48.796;2.396;2022-10-31T15:38:27;13.25;10.25;8.00
62778;PMS7003;48821;48.796;2.396;2022-10-31T15:39:38;15.00;13.25;9.00
62778;PMS7003;48821;48.796;2.396;2022-10-31T15:40:53;15.25;13.00;9.50
62778;PMS7003;48821;48.796;2.396;2022-10-31T15:42:15;15.00;13.50;10.50
62778;PMS7003;48821;48.796;2.396;2022-10-31T15:43:35;12.00;9.25;7.00
62778;PMS7003;48821;48.796;2.396;2022-10-31T15:45:21;13.75;13.75;9.50
62778;PMS7003;48821;48.796;2.396;2022-10-31T15:46:24;15.75;13.75;9.50
62778;PMS7003;48821;48.796;2.396;2022-10-31T15:47:37;17.75;13.75;11.00
62778;PMS7003;48821;48.796;2.396;2022-10-31T15:48:48;14.00;12.50;10.00
62778;PMS7003;48821;48.796;2.396;2022-10-31T15:49:59;12.50;12.00;8.50
62778;PMS7003;48821;48.796;2.396;2022-10-31T15:51:10;14.00;14.00;12.00
62778;PMS7003;48821;48.796;2.396;2022-10-31T15:53:41;11.75;11.75;8.25
62778;PMS7003;48821;48.796;2.396;2022-10-31T15:54:59;12.50;10.75;7.50